Time;durP1;ratioP1;P1;durP2;ratioP2;P2;SDS_P1;SDS_P2;PMS_P1;PMS_P2;Temp;Humidity;BMP_temperature;BMP_pressure;BME280_temperature;BME280_humidity;BME280_pressure;Samples;Min_cycle;Max_cycle;Signal;HPM_P1;HPM_P2
2024/02/03 00:02:20;;;;;;;;;;;;;;;18.21;58.78;101805.09;7396253;19;991;-82
2024/02/03 00:04:49;;;;;;;;;;;;;;;18.21;58.98;101818.47;7399071;19;1573;-82
2024/02/03 00:07:18;;;;;;;;;;;;;;;18.17;59.01;101814.28;7396964;19;1415;-82
2024/02/03 00:09:47;;;;;;;;;;;;;;;18.17;58.95;101803.59;7397197;19;1845;-82
2024/02/03 00:12:16;;;;;;;;;;;;;;;18.15;58.80;101794.78;7404243;19;1437;-82
2024/02/03 00:14:44;;;;;;;;;;;;;;;18.19;58.99;101800.81;7405777;19;1571;-81
2024/02/03 00:17:15;;;;;;;;;;;;;;;18.15;58.88;101804.66;7404595;19;1360;-82
2024/02/03 00:19:46;;;;;;;;;;;;;;;18.19;58.98;101807.00;7406379;19;1336;-82
2024/02/03 00:22:15;;;;;;;;;;;;;;;18.17;58.73;101814.28;7406217;19;1482;-82
2024/02/03 00:24:44;;;;;;;;;;;;;;;18.13;58.92;101802.06;7405441;19;1516;-81
2024/02/03 00:27:13;;;;;;;;;;;;;;;17.86;59.37;101799.44;7405453;19;1128;-82
2024/02/03 00:29:41;;;;;;;;;;;;;;;17.54;60.43;101809.56;7400354;19;1857;-82
2024/02/03 00:32:10;;;;;;;;;;;;;;;17.37;60.63;101803.50;7406121;19;1930;-81
2024/02/03 00:34:38;;;;;;;;;;;;;;;17.24;59.78;101830.16;7404065;19;1601;-82
2024/02/03 00:37:09;;;;;;;;;;;;;;;17.10;60.37;101823.03;7405256;19;1705;-82
2024/02/03 00:39:38;;;;;;;;;;;;;;;17.05;61.04;101810.91;7403478;19;1491;-73
2024/02/03 00:42:06;;;;;;;;;;;;;;;17.35;60.76;101815.25;7405497;19;1580;-73
2024/02/03 00:44:35;;;;;;;;;;;;;;;17.75;59.71;101797.47;7400552;19;1606;-73
2024/02/03 00:47:03;;;;;;;;;;;;;;;17.84;59.43;101817.41;7403195;19;1102;-73
2024/02/03 00:49:33;;;;;;;;;;;;;;;17.97;59.08;101812.13;7400942;19;1854;-73
2024/02/03 00:52:01;;;;;;;;;;;;;;;18.12;58.64;101805.69;7401923;19;1828;-73
2024/02/03 00:54:32;;;;;;;;;;;;;;;18.03;58.70;101799.16;7403609;19;1658;-73
2024/02/03 00:57:01;;;;;;;;;;;;;;;18.02;58.77;101805.47;7400602;19;1805;-73
2024/02/03 00:59:29;;;;;;;;;;;;;;;18.04;58.76;101791.97;7401031;19;1421;-73
2024/02/03 01:01:58;;;;;;;;;;;;;;;18.02;58.66;101812.66;7401373;19;1133;-73
2024/02/03 01:04:26;;;;;;;;;;;;;;;18.01;58.64;101797.56;7402681;19;1399;-73
2024/02/03 01:06:55;;;;;;;;;;;;;;;18.03;58.59;101790.28;7400782;19;1757;-73
2024/02/03 01:09:24;;;;;;;;;;;;;;;18.03;58.61;101790.28;7399038;19;1842;-73
2024/02/03 01:11:56;;;;;;;;;;;;;;;17.98;58.54;101768.31;7402646;19;1974;-73
2024/02/03 01:14:25;;;;;;;;;;;;;;;18.05;58.62;101785.69;7403912;19;1849;-82
2024/02/03 01:16:53;;;;;;;;;;;;;;;18.09;58.48;101796.06;7403460;19;1918;-82
2024/02/03 01:19:22;;;;;;;;;;;;;;;18.05;58.48;101786.53;7403651;19;1493;-81
2024/02/03 01:21:51;;;;;;;;;;;;;;;18.03;58.56;101779.56;7402672;19;1971;-82
2024/02/03 01:24:19;;;;;;;;;;;;;;;18.04;58.44;101775.94;7402409;19;1577;-82
2024/02/03 01:26:48;;;;;;;;;;;;;;;18.03;58.50;101771.56;7404364;19;1503;-82
2024/02/03 01:29:19;;;;;;;;;;;;;;;18.08;58.47;101772.06;7403116;19;1836;-82
2024/02/03 01:31:47;;;;;;;;;;;;;;;18.05;58.32;101764.28;7403845;19;1915;-82
2024/02/03 01:34:16;;;;;;;;;;;;;;;18.05;58.47;101759.78;7403493;19;1828;-81
2024/02/03 01:36:44;;;;;;;;;;;;;;;18.04;58.47;101762.53;7403718;19;1485;-81
2024/02/03 01:39:13;;;;;;;;;;;;;;;18.04;58.47;101760.72;7402558;19;1921;-82
2024/02/03 01:41:41;;;;;;;;;;;;;;;18.08;58.36;101761.38;7401850;19;1912;-81
2024/02/03 01:44:10;;;;;;;;;;;;;;;18.08;58.26;101764.03;7401636;19;1801;-81
2024/02/03 01:46:41;;;;;;;;;;;;;;;18.05;58.34;101756.25;7402754;19;1331;-81
2024/02/03 01:49:10;;;;;;;;;;;;;;;18.05;58.28;101761.59;7402754;19;1839;-81
2024/02/03 01:51:38;;;;;;;;;;;;;;;18.05;58.56;101759.78;7401928;19;1521;-74
2024/02/03 01:54:08;;;;;;;;;;;;;;;18.08;58.28;101761.38;7403087;19;1789;-77
2024/02/03 01:56:41;;;;;;;;;;;;;;;18.08;58.21;101756.91;7402235;19;1063;-81
2024/02/03 01:59:12;;;;;;;;;;;;;;;18.11;58.15;101763.00;7400984;19;1490;-82
2024/02/03 02:01:44;;;;;;;;;;;;;;;18.10;58.20;101751.41;7401458;19;1498;-81
2024/02/03 02:04:13;;;;;;;;;;;;;;;18.07;58.16;101749.81;7402610;19;1409;-81
2024/02/03 02:06:42;;;;;;;;;;;;;;;18.08;58.24;101754.22;7400828;19;1503;-74
2024/02/03 02:09:10;;;;;;;;;;;;;;;18.02;58.13;101735.03;7398241;19;1842;-74
2024/02/03 02:11:39;;;;;;;;;;;;;;;18.06;58.17;101731.16;7403581;19;1813;-73
2024/02/03 02:14:08;;;;;;;;;;;;;;;18.07;58.08;101738.25;7402305;19;1241;-74
2024/02/03 02:16:37;;;;;;;;;;;;;;;18.02;58.30;101745.72;7402631;19;1427;-74
2024/02/03 02:19:08;;;;;;;;;;;;;;;18.05;58.02;101732.16;7401287;19;1479;-73
2024/02/03 02:21:39;;;;;;;;;;;;;;;18.05;58.11;101751.75;7401311;19;1339;-73
2024/02/03 02:24:08;;;;;;;;;;;;;;;18.06;58.08;101742.75;7400781;19;1581;-73
2024/02/03 02:26:36;;;;;;;;;;;;;;;18.12;57.92;101736.09;7401814;19;1522;-73
2024/02/03 02:29:06;;;;;;;;;;;;;;;18.07;58.17;101740.94;7397852;19;1856;-73
2024/02/03 02:31:34;;;;;;;;;;;;;;;18.12;58.06;101735.25;7400842;19;1593;-73
2024/02/03 02:34:03;;;;;;;;;;;;;;;18.11;57.99;101733.56;7399886;19;1513;-73
2024/02/03 02:36:31;;;;;;;;;;;;;;;18.08;58.07;101730.13;7401500;19;1030;-82
2024/02/03 02:39:04;;;;;;;;;;;;;;;18.11;58.01;101715.66;7400588;19;1582;-81
2024/02/03 02:41:33;;;;;;;;;;;;;;;18.05;58.19;101700.88;7402944;19;1596;-82
2024/02/03 02:44:01;;;;;;;;;;;;;;;18.04;57.96;101699.16;7400779;19;1346;-82
2024/02/03 02:46:30;;;;;;;;;;;;;;;18.05;58.30;101703.56;7400664;19;1434;-74
2024/02/03 02:48:58;;;;;;;;;;;;;;;18.08;58.11;101692.66;7401539;19;1827;-81
2024/02/03 02:51:29;;;;;;;;;;;;;;;18.04;57.97;101699.16;7400686;19;1985;-81
2024/02/03 02:53:58;;;;;;;;;;;;;;;18.10;57.99;101695.19;7399820;19;1782;-82
2024/02/03 02:56:29;;;;;;;;;;;;;;;18.12;58.00;101692.44;7401018;19;1954;-82
2024/02/03 02:58:58;;;;;;;;;;;;;;;18.08;58.01;101697.13;7401585;19;1530;-82
2024/02/03 03:01:26;;;;;;;;;;;;;;;18.08;57.94;101692.66;7406651;19;1431;-82
2024/02/03 03:03:56;;;;;;;;;;;;;;;18.05;58.03;101703.56;7402556;19;1393;-78
2024/02/03 03:06:24;;;;;;;;;;;;;;;18.06;57.91;101689.22;7394100;19;1859;-73
2024/02/03 03:08:53;;;;;;;;;;;;;;;18.06;57.91;101699.06;7402988;19;1802;-82
2024/02/03 03:11:21;;;;;;;;;;;;;;;18.02;58.11;101700.22;7402265;19;1148;-71
2024/02/03 03:13:52;;;;;;;;;;;;;;;18.03;58.05;101688.56;7404116;19;1825;-73
2024/02/03 03:16:21;;;;;;;;;;;;;;;18.03;57.91;101696.59;7400988;19;1912;-73
2024/02/03 03:18:49;;;;;;;;;;;;;;;18.03;57.89;101694.78;7397893;19;1519;-73
2024/02/03 03:21:18;;;;;;;;;;;;;;;18.02;57.86;101690.38;7398717;19;1542;-73
2024/02/03 03:23:46;;;;;;;;;;;;;;;18.02;57.91;101697.56;7397133;19;1145;-74
2024/02/03 03:26:14;;;;;;;;;;;;;;;18.08;57.88;101692.66;7399279;19;1430;-73
2024/02/03 03:28:43;;;;;;;;;;;;;;;18.06;57.90;101686.56;7396001;19;1854;-74
2024/02/03 03:31:21;;;;;;;;;;;;;;;18.04;57.82;101690.28;7398921;19;1511;-73
2024/02/03 03:33:49;;;;;;;;;;;;;;;17.97;58.11;101694.34;7396667;19;1840;-73
2024/02/03 03:36:17;;;;;;;;;;;;;;;18.05;57.87;101697.34;7400147;19;1482;-75
2024/02/03 03:38:46;;;;;;;;;;;;;;;17.94;58.19;101702.59;7397686;19;1482;-81
2024/02/03 03:41:14;;;;;;;;;;;;;;;17.57;58.81;101694.38;7399279;19;1431;-82
2024/02/03 03:43:43;;;;;;;;;;;;;;;17.36;59.53;101697.50;7398809;19;1319;-82
2024/02/03 03:46:11;;;;;;;;;;;;;;;17.11;58.33;101692.94;7400737;19;1577;-81
2024/02/03 03:48:42;;;;;;;;;;;;;;;17.01;59.12;101682.00;7407394;19;1391;-73
2024/02/03 03:51:11;;;;;;;;;;;;;;;16.94;60.28;101678.00;7405265;19;1630;-73
2024/02/03 03:53:39;;;;;;;;;;;;;;;17.25;59.96;101676.00;7405775;19;1542;-73
2024/02/03 03:56:08;;;;;;;;;;;;;;;17.50;59.23;101657.31;7405803;19;1329;-74
2024/02/03 03:58:36;;;;;;;;;;;;;;;17.63;58.92;101660.03;7405698;19;1015;-74
2024/02/03 04:01:05;;;;;;;;;;;;;;;18.06;57.81;101640.16;7401337;19;1562;-74
2024/02/03 04:03:33;;;;;;;;;;;;;;;18.26;57.17;101628.94;7403698;19;1433;-73
2024/02/03 04:06:05;;;;;;;;;;;;;;;18.45;56.56;101627.59;7407999;19;1214;-82
2024/02/03 04:08:34;;;;;;;;;;;;;;;18.51;56.67;101634.34;7404591;19;1411;-81
2024/02/03 04:11:03;;;;;;;;;;;;;;;18.56;56.42;101633.03;7402582;19;1837;-81
2024/02/03 04:13:31;;;;;;;;;;;;;;;18.56;56.47;101614.28;7402286;19;1479;-81
2024/02/03 04:16:00;;;;;;;;;;;;;;;18.59;56.48;101622.09;7406019;19;1777;-81
2024/02/03 04:18:28;;;;;;;;;;;;;;;18.41;56.74;101620.75;7405482;19;2037;-82
2024/02/03 04:20:57;;;;;;;;;;;;;;;18.39;56.97;101614.66;7404315;19;1389;-82
2024/02/03 04:23:29;;;;;;;;;;;;;;;18.28;57.04;101608.25;7406211;19;1518;-82
2024/02/03 04:25:58;;;;;;;;;;;;;;;18.31;57.18;101630.41;7405325;19;1520;-82
2024/02/03 04:28:27;;;;;;;;;;;;;;;18.38;56.99;101634.34;7405404;19;1585;-82
2024/02/03 04:30:58;;;;;;;;;;;;;;;18.34;57.15;101619.47;7403026;19;1844;-82
2024/02/03 04:33:26;;;;;;;;;;;;;;;18.32;57.34;101611.53;7402546;19;1610;-81
2024/02/03 04:35:55;;;;;;;;;;;;;;;18.36;57.21;101614.84;7406498;19;1435;-82
2024/02/03 04:38:25;;;;;;;;;;;;;;;18.34;57.35;101596.22;7406612;19;1003;-82
2024/02/03 04:40:56;;;;;;;;;;;;;;;18.41;57.01;101588.63;7405547;19;1849;-82
2024/02/03 04:43:25;;;;;;;;;;;;;;;18.41;57.09;101602.84;7405808;19;1585;-82
2024/02/03 04:45:53;;;;;;;;;;;;;;;18.36;57.23;101586.25;7404675;19;1763;-82
2024/02/03 04:48:22;;;;;;;;;;;;;;;18.35;57.13;101597.09;7405718;19;1498;-82
2024/02/03 04:50:47;;;;;;;;;;;;;;;18.37;57.29;101600.53;7399521;19;1821;-82
2024/02/03 04:53:16;;;;;;;;;;;;;;;18.40;57.05;101605.63;7403648;19;1474;-74
2024/02/03 04:55:45;;;;;;;;;;;;;;;18.41;57.03;101589.47;7401664;19;1410;-74
2024/02/03 04:58:18;;;;;;;;;;;;;;;18.42;57.10;101593.00;7402447;19;1570;-82
2024/02/03 05:00:47;;;;;;;;;;;;;;;18.44;56.87;101602.66;7406073;19;1590;-82
2024/02/03 05:03:15;;;;;;;;;;;;;;;18.41;57.00;101600.19;7404442;19;1479;-82
2024/02/03 05:05:43;;;;;;;;;;;;;;;18.43;56.95;101597.41;7404133;19;1738;-82
2024/02/03 05:08:16;;;;;;;;;;;;;;;18.46;56.94;101594.47;7405002;19;1837;-81
2024/02/03 05:10:45;;;;;;;;;;;;;;;18.44;56.92;101604.44;7401848;19;1912;-82
2024/02/03 05:13:16;;;;;;;;;;;;;;;18.47;56.90;101585.50;7402277;19;1655;-82
2024/02/03 05:15:44;;;;;;;;;;;;;;;18.45;57.11;101592.78;7399343;19;1844;-82
2024/02/03 05:18:12;;;;;;;;;;;;;;;18.45;56.84;101579.38;7402922;19;1526;-82
2024/02/03 05:20:41;;;;;;;;;;;;;;;18.46;56.86;101590.00;7403485;19;1470;-82
2024/02/03 05:23:09;;;;;;;;;;;;;;;18.49;56.77;101583.56;7400951;19;1504;-82
2024/02/03 05:25:37;;;;;;;;;;;;;;;17.97;56.89;101496.31;7403987;19;1676;-82
2024/02/03 05:28:06;;;;;;;;;;;;;;;18.49;56.96;101595.13;7401537;19;1694;-82
2024/02/03 05:30:37;;;;;;;;;;;;;;;18.44;56.99;101583.91;7400877;19;1826;-82
2024/02/03 05:33:06;;;;;;;;;;;;;;;18.48;56.86;101584.50;7402156;19;1287;-73
2024/02/03 05:35:34;;;;;;;;;;;;;;;18.48;56.83;101584.50;7402439;19;1405;-73
2024/02/03 05:38:02;;;;;;;;;;;;;;;18.49;56.94;101602.31;7402138;19;1524;-74
2024/02/03 05:40:31;;;;;;;;;;;;;;;18.48;57.00;101597.91;7402434;19;1582;-73
2024/02/03 05:43:01;;;;;;;;;;;;;;;18.50;56.84;101595.97;7403664;19;1577;-74
2024/02/03 05:45:30;;;;;;;;;;;;;;;18.56;56.96;101590.19;7401530;19;1563;-74
2024/02/03 05:48:01;;;;;;;;;;;;;;;18.57;56.88;101577.63;7402865;19;1498;-73
2024/02/03 05:50:29;;;;;;;;;;;;;;;18.63;57.08;101602.13;7401316;19;1849;-82
2024/02/03 05:52:58;;;;;;;;;;;;;;;18.68;56.58;101591.06;7401593;19;1510;-81
2024/02/03 05:55:26;;;;;;;;;;;;;;;18.62;56.83;101583.50;7402526;19;1607;-82
2024/02/03 05:57:59;;;;;;;;;;;;;;;18.69;57.02;101592.81;7403547;19;1415;-74
2024/02/03 06:00:27;;;;;;;;;;;;;;;18.65;57.28;101578.78;7402658;19;1503;-74
2024/02/03 06:02:56;;;;;;;;;;;;;;;18.72;57.22;101584.56;7400979;19;1423;-74
2024/02/03 06:05:27;;;;;;;;;;;;;;;18.88;56.61;101587.81;7401788;19;1544;-81
2024/02/03 06:07:59;;;;;;;;;;;;;;;18.96;56.60;101597.97;7402677;19;1912;-81
2024/02/03 06:10:28;;;;;;;;;;;;;;;18.75;56.43;101605.75;7401048;19;1845;-80
2024/02/03 06:12:56;;;;;;;;;;;;;;;18.72;56.46;101599.75;7403113;19;1395;-73
2024/02/03 06:15:25;;;;;;;;;;;;;;;18.71;56.47;101592.69;7399793;19;1375;-83
2024/02/03 06:17:56;;;;;;;;;;;;;;;18.69;56.31;101588.28;7396312;19;1576;-74
2024/02/03 06:20:27;;;;;;;;;;;;;;;18.61;56.37;101585.31;7400349;19;1549;-82
2024/02/03 06:22:55;;;;;;;;;;;;;;;18.60;56.14;101583.63;7397177;19;1382;-74
2024/02/03 06:25:24;;;;;;;;;;;;;;;18.60;56.58;101585.44;7403594;19;1502;-81
2024/02/03 06:27:52;;;;;;;;;;;;;;;18.81;56.00;101583.03;7407992;19;1011;-83
2024/02/03 06:30:20;;;;;;;;;;;;;;;18.87;56.18;101587.94;7401787;19;1939;-73
2024/02/03 06:32:49;;;;;;;;;;;;;;;18.34;55.49;101498.97;7402058;19;1488;-73
2024/02/03 06:35:17;;;;;;;;;;;;;;;18.93;55.53;101592.81;7402445;19;1581;-84
2024/02/03 06:37:49;;;;;;;;;;;;;;;18.68;56.11;101602.66;7403360;19;1409;-82
2024/02/03 06:40:17;;;;;;;;;;;;;;;18.57;56.16;101581.16;7400928;19;1538;-83
2024/02/03 06:42:45;;;;;;;;;;;;;;;18.61;56.21;101593.34;7402406;19;1574;-82
2024/02/03 06:45:14;;;;;;;;;;;;;;;18.70;55.80;101602.53;7400892;19;1527;-71
2024/02/03 06:47:43;;;;;;;;;;;;;;;18.81;55.14;101607.16;7398732;19;1380;-80
2024/02/03 06:50:12;;;;;;;;;;;;;;;18.69;54.33;101617.75;7400684;19;1850;-79
2024/02/03 06:52:40;;;;;;;;;;;;;;;18.76;54.20;101596.75;7401509;19;1621;-79
2024/02/03 06:55:11;;;;;;;;;;;;;;;18.82;54.41;101601.69;7397979;19;1571;-79
2024/02/03 06:57:40;;;;;;;;;;;;;;;18.86;54.31;101588.88;7401466;19;981;-79
2024/02/03 07:00:12;;;;;;;;;;;;;;;18.88;54.31;101579.78;7398321;19;1785;-80
2024/02/03 07:02:41;;;;;;;;;;;;;;;18.92;54.26;101563.44;7397583;19;1497;-80
2024/02/03 07:05:12;;;;;;;;;;;;;;;18.96;54.15;101575.66;7398826;19;985;-80
2024/02/03 07:07:41;;;;;;;;;;;;;;;18.97;54.27;101572.00;7396877;19;1786;-79
2024/02/03 07:10:12;;;;;;;;;;;;;;;18.93;54.38;101576.75;7399000;19;1860;-79
2024/02/03 07:12:40;;;;;;;;;;;;;;;18.98;54.11;101579.06;7396547;19;999;-79
2024/02/03 07:15:09;;;;;;;;;;;;;;;18.97;54.12;101559.47;7399180;19;1749;-79
2024/02/03 07:17:37;;;;;;;;;;;;;;;18.99;54.08;101557.53;7397589;19;1845;-79
2024/02/03 07:20:06;;;;;;;;;;;;;;;18.99;54.20;101564.72;7398791;19;1054;-80
2024/02/03 07:22:34;;;;;;;;;;;;;;;19.02;54.28;101576.06;7400198;19;1038;-80
2024/02/03 07:25:03;;;;;;;;;;;;;;;19.02;54.02;101564.47;7399496;19;1834;-80
2024/02/03 07:27:34;;;;;;;;;;;;;;;19.05;53.96;101558.88;7398142;19;1527;-79
2024/02/03 07:30:04;;;;;;;;;;;;;;;19.11;53.88;101561.09;7399812;19;1848;-80
2024/02/03 07:32:33;;;;;;;;;;;;;;;19.08;53.93;101569.38;7398197;19;1031;-80
2024/02/03 07:35:02;;;;;;;;;;;;;;;19.03;54.04;101561.69;7396912;19;1401;-80
2024/02/03 07:37:31;;;;;;;;;;;;;;;19.11;53.94;101562.94;7399977;19;1441;-80
2024/02/03 07:40:00;;;;;;;;;;;;;;;19.20;53.71;101576.50;7398378;19;1947;-80
2024/02/03 07:42:28;;;;;;;;;;;;;;;19.12;53.86;101560.13;7396620;19;1805;-79
2024/02/03 07:44:59;;;;;;;;;;;;;;;19.18;53.78;101556.09;7396750;19;1814;-80
2024/02/03 07:47:28;;;;;;;;;;;;;;;19.15;53.74;101554.53;7399113;19;1424;-80
2024/02/03 07:50:05;;;;;;;;;;;;;;;19.19;53.51;101557.84;7397398;19;997;-80
2024/02/03 07:52:35;;;;;;;;;;;;;;;19.19;53.58;101536.38;7399180;19;1840;-80
2024/02/03 07:55:03;;;;;;;;;;;;;;;19.23;53.58;101535.16;7399572;19;1743;-80
2024/02/03 07:57:32;;;;;;;;;;;;;;;19.24;53.63;101539.56;7397092;19;1459;-80
2024/02/03 08:00:06;;;;;;;;;;;;;;;19.23;53.60;101533.34;7398497;19;1487;-80
2024/02/03 08:02:34;;;;;;;;;;;;;;;19.26;53.50;101524.22;7398149;19;1820;-80
2024/02/03 08:05:03;;;;;;;;;;;;;;;19.27;53.46;101529.44;7397557;19;1488;-80
2024/02/03 08:07:32;;;;;;;;;;;;;;;19.25;53.62;101520.66;7397850;19;1665;-80
2024/02/03 08:10:00;;;;;;;;;;;;;;;19.30;53.59;101530.19;7398112;19;950;-80
2024/02/03 08:12:29;;;;;;;;;;;;;;;19.31;53.50;101519.34;7393930;19;1836;-80
2024/02/03 08:14:57;;;;;;;;;;;;;;;19.31;53.30;101527.38;7395218;19;1155;-79
2024/02/03 08:17:29;;;;;;;;;;;;;;;19.33;53.35;101522.75;7396519;19;1777;-79
2024/02/03 08:19:58;;;;;;;;;;;;;;;19.35;53.35;101512.75;7399337;19;1005;-80
2024/02/03 08:22:26;;;;;;;;;;;;;;;19.32;53.40;101529.09;7398234;19;1574;-80
2024/02/03 08:24:55;;;;;;;;;;;;;;;19.41;53.23;101536.41;7397893;19;1923;-80
2024/02/03 08:27:23;;;;;;;;;;;;;;;19.44;53.16;101530.84;7396802;19;1833;-79
2024/02/03 08:29:51;;;;;;;;;;;;;;;19.46;53.15;101530.72;7398567;19;1779;-80
2024/02/03 08:32:21;;;;;;;;;;;;;;;19.51;53.00;101531.19;7395528;19;1861;-79
2024/02/03 08:34:52;;;;;;;;;;;;;;;19.52;52.98;101548.13;7403707;19;1563;-79
2024/02/03 08:37:24;;;;;;;;;;;;;;;19.48;53.00;101526.94;7404510;19;1022;-79
2024/02/03 08:39:52;;;;;;;;;;;;;;;19.55;52.95;101540.72;7403670;19;1518;-80
2024/02/03 08:42:22;;;;;;;;;;;;;;;19.52;53.02;101537.41;7404013;19;934;-79
2024/02/03 08:44:50;;;;;;;;;;;;;;;19.57;52.87;101533.38;7399752;19;1491;-80
2024/02/03 08:47:19;;;;;;;;;;;;;;;19.59;52.99;101525.22;7403108;19;1921;-80
2024/02/03 08:49:56;;;;;;;;;;;;;;;19.33;53.41;101536.16;7403650;19;1042;-79
2024/02/03 08:52:25;;;;;;;;;;;;;;;18.79;54.51;101499.19;7401707;19;1865;-72
2024/02/03 08:54:53;;;;;;;;;;;;;;;18.51;55.44;101520.00;7402870;19;1848;-72
2024/02/03 08:57:22;;;;;;;;;;;;;;;18.61;55.23;101507.63;7402143;19;1106;-72
2024/02/03 08:59:51;;;;;;;;;;;;;;;18.93;54.49;101517.78;7399733;19;943;-72
2024/02/03 09:02:19;;;;;;;;;;;;;;;19.32;53.60;101513.03;7403457;19;1594;-72
2024/02/03 09:04:50;;;;;;;;;;;;;;;19.49;53.10;101509.00;7402076;19;1923;-71
2024/02/03 09:07:21;;;;;;;;;;;;;;;19.51;52.98;101500.84;7401054;19;1501;-71
2024/02/03 09:09:49;;;;;;;;;;;;;;;19.61;52.78;101496.44;7403432;19;1929;-72
2024/02/03 09:12:17;;;;;;;;;;;;;;;19.62;52.73;101488.28;7398833;19;1872;-71
2024/02/03 09:14:46;;;;;;;;;;;;;;;19.42;53.29;101478.28;7401473;19;1564;-72
2024/02/03 09:17:15;;;;;;;;;;;;;;;18.94;54.31;101481.97;7402248;19;1707;-72
2024/02/03 09:19:44;;;;;;;;;;;;;;;18.59;54.79;101482.78;7401176;19;1133;-72
2024/02/03 09:22:13;;;;;;;;;;;;;;;18.43;55.44;101471.53;7402483;19;1853;-72
2024/02/03 09:24:44;;;;;;;;;;;;;;;18.85;54.71;101469.28;7402067;19;1523;-72
2024/02/03 09:27:13;;;;;;;;;;;;;;;19.10;54.05;101462.88;7403513;19;1000;-72
2024/02/03 09:29:41;;;;;;;;;;;;;;;19.35;53.55;101466.31;7399621;19;1027;-72
2024/02/03 09:32:10;;;;;;;;;;;;;;;19.48;53.24;101475.97;7400870;19;1910;-72
2024/02/03 09:34:39;;;;;;;;;;;;;;;19.47;53.01;101463.50;7402142;19;1511;-72
2024/02/03 09:37:08;;;;;;;;;;;;;;;19.46;52.95;101469.88;7400863;19;1825;-72
2024/02/03 09:39:37;;;;;;;;;;;;;;;19.47;53.07;101459.97;7402352;19;1745;-72
2024/02/03 09:42:09;;;;;;;;;;;;;;;19.54;52.84;101449.63;7402456;19;1841;-72
2024/02/03 09:44:37;;;;;;;;;;;;;;;19.56;52.76;101440.47;7399271;19;959;-78
2024/02/03 09:47:06;;;;;;;;;;;;;;;19.50;53.05;101434.75;7401354;19;1951;-79
2024/02/03 09:49:34;;;;;;;;;;;;;;;19.52;53.02;101448.88;7398938;19;1046;-72
2024/02/03 09:52:13;;;;;;;;;;;;;;;19.44;52.98;101434.28;7401663;19;1851;-79
2024/02/03 09:54:42;;;;;;;;;;;;;;;19.42;53.36;101421.97;7401006;19;1720;-78
2024/02/03 09:57:14;;;;;;;;;;;;;;;19.46;53.24;101426.94;7400997;19;1855;-79
2024/02/03 09:59:42;;;;;;;;;;;;;;;19.51;53.00;101409.63;7398648;19;1861;-72
2024/02/03 10:02:11;;;;;;;;;;;;;;;19.50;52.92;101418.66;7401169;19;1654;-71
2024/02/03 10:04:40;;;;;;;;;;;;;;;19.55;52.93;101389.63;7398777;19;1817;-79
2024/02/03 10:07:09;;;;;;;;;;;;;;;19.59;52.96;101385.72;7401112;19;1745;-78
2024/02/03 10:09:37;;;;;;;;;;;;;;;19.60;52.87;101408.91;7398776;19;997;-77
2024/02/03 10:12:06;;;;;;;;;;;;;;;19.56;52.76;101381.47;7399767;19;1935;-78
2024/02/03 10:14:37;;;;;;;;;;;;;;;19.56;52.77;101370.72;7401193;19;1381;-71
2024/02/03 10:17:06;;;;;;;;;;;;;;;19.66;52.74;101386.94;7400842;19;1495;-80
2024/02/03 10:19:34;;;;;;;;;;;;;;;19.56;52.90;101369.88;7398785;19;1101;-80
2024/02/03 10:22:02;;;;;;;;;;;;;;;19.52;52.97;101377.31;7399860;19;1824;-72
2024/02/03 10:24:31;;;;;;;;;;;;;;;19.64;52.67;101362.91;7397735;19;1900;-71
2024/02/03 10:27:02;;;;;;;;;;;;;;;19.65;52.88;101369.13;7401339;19;1937;-80
2024/02/03 10:29:30;;;;;;;;;;;;;;;19.64;52.83;101362.91;7400824;19;1582;-72
2024/02/03 10:32:02;;;;;;;;;;;;;;;19.62;52.87;101364.03;7399701;19;1855;-80
2024/02/03 10:34:32;;;;;;;;;;;;;;;19.69;52.60;101349.09;7403085;19;1758;-71
2024/02/03 10:37:03;;;;;;;;;;;;;;;19.61;52.78;101352.41;7401845;19;1666;-72
2024/02/03 10:39:32;;;;;;;;;;;;;;;19.70;52.73;101336.56;7403886;19;1857;-80
2024/02/03 10:42:02;;;;;;;;;;;;;;;19.69;52.63;101319.59;7399642;19;1501;-80
2024/02/03 10:44:30;;;;;;;;;;;;;;;19.70;52.62;101329.34;7403292;19;989;-80
2024/02/03 10:47:04;;;;;;;;;;;;;;;19.75;52.55;101320.97;7397065;19;1960;-72
2024/02/03 10:49:45;;;;;;;;;;;;;;;19.70;52.60;101318.63;7398843;19;1040;-80
2024/02/03 10:52:14;;;;;;;;;;;;;;;19.57;52.89;101312.56;7399918;19;1864;-80
2024/02/03 10:54:44;;;;;;;;;;;;;;;19.52;52.98;101304.03;7398237;19;1595;-80
2024/02/03 10:57:10;;;;;;;;;;;;;;;19.60;52.98;101307.81;7399766;19;1940;-80
2024/02/03 10:59:39;;;;;;;;;;;;;;;19.58;53.00;101322.31;7396995;19;1881;-80
2024/02/03 11:02:20;;;;;;;;;;;;;;;19.59;52.97;101305.22;7398552;19;1499;-80
2024/02/03 11:04:52;;;;;;;;;;;;;;;19.64;53.00;101303.88;7399615;19;1551;-80
2024/02/03 11:07:24;;;;;;;;;;;;;;;19.66;52.87;101307.28;7400598;19;1501;-80
2024/02/03 11:09:53;;;;;;;;;;;;;;;19.70;52.91;101307.91;7401219;19;1533;-79
2024/02/03 11:12:21;;;;;;;;;;;;;;;19.60;53.09;101318.53;7395793;19;1848;-78
2024/02/03 11:14:50;;;;;;;;;;;;;;;19.59;53.02;101294.50;7400344;19;1726;-78
2024/02/03 11:17:21;;;;;;;;;;;;;;;19.64;52.90;101305.72;7398974;19;1820;-79
2024/02/03 11:19:50;;;;;;;;;;;;;;;19.61;52.93;101289.88;7399626;19;983;-78
2024/02/03 11:22:19;;;;;;;;;;;;;;;19.60;53.09;101297.06;7399912;19;1495;-78
2024/02/03 11:24:48;;;;;;;;;;;;;;;19.47;53.31;101293.69;7398709;19;1881;-78
2024/02/03 11:27:17;;;;;;;;;;;;;;;19.44;53.32;101286.75;7398712;19;1413;-78
2024/02/03 11:29:45;;;;;;;;;;;;;;;19.48;53.33;101274.78;7400689;19;1003;-78
2024/02/03 11:32:14;;;;;;;;;;;;;;;19.55;53.14;101282.31;7395839;19;1854;-78
2024/02/03 11:34:45;;;;;;;;;;;;;;;19.63;52.99;101287.91;7399194;19;1782;-78
2024/02/03 11:37:15;;;;;;;;;;;;;;;19.60;52.92;101264.03;7399439;19;939;-78
2024/02/03 11:39:44;;;;;;;;;;;;;;;19.58;52.93;101268.66;7398902;19;1691;-78
2024/02/03 11:42:13;;;;;;;;;;;;;;;19.60;52.91;101264.03;7398880;19;2021;-77
2024/02/03 11:44:50;;;;;;;;;;;;;;;19.60;53.27;101258.66;7398890;19;1742;-78
2024/02/03 11:47:20;;;;;;;;;;;;;;;19.63;53.00;101266.44;7397860;19;1937;-78
2024/02/03 11:49:52;;;;;;;;;;;;;;;19.59;53.09;101249.75;7392421;19;1528;-78
2024/02/03 11:52:22;;;;;;;;;;;;;;;19.67;53.07;101259.84;7398504;19;1850;-78
2024/02/03 11:54:51;;;;;;;;;;;;;;;19.61;53.01;101249.63;7398668;19;1931;-78
2024/02/03 11:57:19;;;;;;;;;;;;;;;19.67;52.98;101254.47;7398553;19;1854;-78
2024/02/03 11:59:48;;;;;;;;;;;;;;;19.66;52.95;101240.22;7398851;19;1849;-78
2024/02/03 12:02:17;;;;;;;;;;;;;;;19.66;52.91;101234.00;7398601;19;1829;-79
2024/02/03 12:04:46;;;;;;;;;;;;;;;19.67;52.93;101239.22;7398248;19;1385;-78
2024/02/03 12:07:17;;;;;;;;;;;;;;;19.67;52.90;101227.63;7397695;19;1763;-79
2024/02/03 12:09:47;;;;;;;;;;;;;;;19.62;52.96;101220.00;7401767;19;1762;-79
2024/02/03 12:12:15;;;;;;;;;;;;;;;19.77;52.87;101225.91;7403389;19;1950;-79
2024/02/03 12:14:49;;;;;;;;;;;;;;;19.55;53.07;101223.31;7405780;19;1782;-78
2024/02/03 12:17:25;;;;;;;;;;;;;;;19.10;54.41;101221.63;7404007;19;1808;-79
2024/02/03 12:19:54;;;;;;;;;;;;;;;18.77;55.19;101228.69;7405913;19;980;-79
2024/02/03 12:22:25;;;;;;;;;;;;;;;18.66;55.27;101232.22;7406087;19;1436;-79
2024/02/03 12:24:54;;;;;;;;;;;;;;;18.99;54.62;101222.47;7406191;19;1844;-79
2024/02/03 12:27:25;;;;;;;;;;;;;;;19.17;54.17;101211.25;7403696;19;1565;-71
2024/02/03 12:29:53;;;;;;;;;;;;;;;19.05;54.55;101203.22;7399765;19;1010;-72
2024/02/03 12:32:22;;;;;;;;;;;;;;;18.77;55.24;101187.66;7402570;19;1858;-79
2024/02/03 12:34:50;;;;;;;;;;;;;;;18.54;55.71;101201.03;7405079;19;1880;-79
2024/02/03 12:37:20;;;;;;;;;;;;;;;18.67;55.37;101172.31;7403287;19;1825;-79
2024/02/03 12:39:51;;;;;;;;;;;;;;;19.10;54.35;101177.84;7402111;19;1877;-79
2024/02/03 12:42:19;;;;;;;;;;;;;;;19.31;53.92;101183.28;7403053;19;1849;-79
2024/02/03 12:44:47;;;;;;;;;;;;;;;19.06;54.55;101171.94;7400024;19;1762;-79
2024/02/03 12:47:14;;;;;;;;;;;;;;;18.68;55.29;101171.34;7401284;19;1845;-78
2024/02/03 12:49:43;;;;;;;;;;;;;;;18.47;56.13;101178.41;7402800;19;976;-79
2024/02/03 12:52:11;;;;;;;;;;;;;;;18.76;55.13;101162.69;7403285;19;1909;-78
2024/02/03 12:54:39;;;;;;;;;;;;;;;19.07;54.45;101163.72;7404051;19;1773;-79
2024/02/03 12:57:11;;;;;;;;;;;;;;;19.42;53.75;101151.06;7401462;19;1188;-79
2024/02/03 12:59:41;;;;;;;;;;;;;;;19.04;54.47;101139.88;7405097;19;1503;-78